createdAt,value
2018-12-10T00:02:02.493Z,6.29
2018-12-10T00:04:35.060Z,6.28
2018-12-10T00:07:06.667Z,6.27
2018-12-10T00:09:36.895Z,6.25
2018-12-10T00:12:06.390Z,6.20
2018-12-10T00:14:36.236Z,6.19
2018-12-10T00:17:06.650Z,6.08
2018-12-10T00:19:36.012Z,6.00
2018-12-10T00:22:05.758Z,5.98
2018-12-10T00:24:36.031Z,6.00
2018-12-10T00:27:06.397Z,6.01
2018-12-10T00:29:35.565Z,6.07
2018-12-10T00:32:06.788Z,6.03
2018-12-10T00:34:36.091Z,6.00
2018-12-10T00:37:06.490Z,5.98
2018-12-10T00:39:36.410Z,5.96
2018-12-10T00:42:05.794Z,5.95
2018-12-10T00:44:35.493Z,6.00
2018-12-10T00:47:04.860Z,6.02
2018-12-10T00:49:34.173Z,5.99
2018-12-10T00:52:03.686Z,5.97
2018-12-10T00:54:33.790Z,5.98
2018-12-10T00:57:03.691Z,5.98
2018-12-10T00:59:33.995Z,5.96
2018-12-10T01:02:05.141Z,5.88
2018-12-10T01:04:35.267Z,5.80
2018-12-10T01:07:05.115Z,5.76
2018-12-10T01:09:34.801Z,5.70
2018-12-10T01:12:04.257Z,5.65
2018-12-10T01:14:34.593Z,5.59
2018-12-10T01:17:04.040Z,5.51
2018-12-10T01:19:33.381Z,5.46
2018-12-10T01:22:02.958Z,5.34
2018-12-10T01:24:32.320Z,5.27
2018-12-10T01:27:02.466Z,5.26
2018-12-10T01:29:32.427Z,5.19
2018-12-10T01:32:01.948Z,5.23
2018-12-10T01:34:32.028Z,5.26
2018-12-10T01:37:02.161Z,5.35
2018-12-10T01:39:31.543Z,5.39
2018-12-10T01:42:01.722Z,5.40
2018-12-10T01:44:31.828Z,5.41
2018-12-10T01:47:01.912Z,5.46
2018-12-10T01:49:31.211Z,5.51
2018-12-10T01:52:00.412Z,5.50
2018-12-10T01:54:30.608Z,5.47
2018-12-10T01:56:59.821Z,5.46
2018-12-10T01:59:29.002Z,5.46
2018-12-10T02:01:58.523Z,5.44
2018-12-10T02:04:28.441Z,5.43
2018-12-10T02:06:57.738Z,5.39
2018-12-10T02:09:27.557Z,5.35
2018-12-10T02:11:57.097Z,5.36
2018-12-10T02:14:26.370Z,5.33
2018-12-10T02:16:55.648Z,5.36
2018-12-10T02:19:25.278Z,5.38
2018-12-10T02:21:54.915Z,5.33
2018-12-10T02:24:24.218Z,5.30
2018-12-10T02:26:53.461Z,5.31
2018-12-10T02:29:23.483Z,5.33
2018-12-10T02:31:53.922Z,5.31
2018-12-10T02:34:24.100Z,5.37
2018-12-10T02:36:53.992Z,5.38
2018-12-10T02:39:23.959Z,5.40
2018-12-10T02:41:53.488Z,5.34
2018-12-10T02:44:22.974Z,5.25
2018-12-10T02:46:52.550Z,5.21
2018-12-10T02:49:22.145Z,5.10
2018-12-10T02:51:52.334Z,5.12
2018-12-10T02:54:21.677Z,5.15
2018-12-10T02:56:51.077Z,5.17
2018-12-10T02:59:20.792Z,5.18
2018-12-10T03:01:50.143Z,5.21
2018-12-10T03:04:21.423Z,5.22
2018-12-10T03:06:50.859Z,5.26
2018-12-10T03:09:20.232Z,5.27
2018-12-10T03:11:49.565Z,5.27
2018-12-10T03:14:19.124Z,5.28
2018-12-10T03:16:49.764Z,5.31
2018-12-10T03:19:19.614Z,5.30
2018-12-10T03:21:49.925Z,5.33
2018-12-10T03:24:19.090Z,5.36
2018-12-10T03:26:49.406Z,5.35
2018-12-10T03:29:18.846Z,5.37
2018-12-10T03:31:48.278Z,5.36
2018-12-10T03:34:17.872Z,5.35
2018-12-10T03:36:48.139Z,5.34
2018-12-10T03:39:17.520Z,5.38
2018-12-10T03:41:47.448Z,5.39
2018-12-10T03:44:16.762Z,5.42
2018-12-10T03:46:47.298Z,5.37
2018-12-10T03:49:17.359Z,5.36
2018-12-10T03:51:46.703Z,5.32
2018-12-10T03:54:16.158Z,5.30
2018-12-10T03:56:46.105Z,5.31
2018-12-10T03:59:15.587Z,5.32
2018-12-10T04:01:44.898Z,5.33
2018-12-10T04:04:14.403Z,5.32
2018-12-10T04:06:43.809Z,5.27
2018-12-10T04:09:13.100Z,5.28
2018-12-10T04:11:44.061Z,5.32
2018-12-10T04:14:13.398Z,5.30
2018-12-10T04:16:43.559Z,5.27
2018-12-10T04:19:12.774Z,5.28
2018-12-10T04:21:42.039Z,5.27
2018-12-10T04:24:11.273Z,5.29
2018-12-10T04:26:40.663Z,5.27
2018-12-10T04:29:10.090Z,5.29
2018-12-10T04:31:39.715Z,5.31
2018-12-10T04:34:09.953Z,5.32
2018-12-10T04:36:39.486Z,5.28
2018-12-10T04:39:09.357Z,5.31
2018-12-10T04:41:38.784Z,5.35
2018-12-10T04:44:08.634Z,5.32
2018-12-10T04:46:38.193Z,5.33
2018-12-10T04:49:07.615Z,5.15
2018-12-10T04:51:37.203Z,5.09
2018-12-10T04:54:06.711Z,5.09
2018-12-10T04:56:36.116Z,5.03
2018-12-10T04:59:05.683Z,5.03
2018-12-10T05:01:35.375Z,5.02
2018-12-10T05:04:04.925Z,4.98
2018-12-10T05:06:34.420Z,4.97
2018-12-10T05:09:06.216Z,4.95
2018-12-10T05:11:36.774Z,4.91
2018-12-10T05:14:06.268Z,4.82
2018-12-10T05:16:36.202Z,4.81
2018-12-10T05:19:06.421Z,4.72
2018-12-10T05:21:35.934Z,4.75
2018-12-10T05:24:05.400Z,4.67
2018-12-10T05:26:36.385Z,4.69
2018-12-10T05:29:05.820Z,4.69
2018-12-10T05:31:35.944Z,4.73
2018-12-10T05:34:05.323Z,4.71
2018-12-10T05:36:35.466Z,4.77
2018-12-10T05:39:06.414Z,4.76
2018-12-10T05:41:36.771Z,4.67
2018-12-10T05:44:06.480Z,4.50
2018-12-10T05:46:37.014Z,4.41
2018-12-10T05:49:06.539Z,4.22
2018-12-10T05:51:35.928Z,4.13
2018-12-10T05:54:05.618Z,3.88
2018-12-10T05:56:35.058Z,3.80
2018-12-10T05:59:04.630Z,3.70
2018-12-10T06:01:35.139Z,3.54
2018-12-10T06:04:04.714Z,3.62
2018-12-10T06:06:34.440Z,3.53
2018-12-10T06:09:05.380Z,3.42
2018-12-10T06:11:34.625Z,3.23
2018-12-10T06:14:04.238Z,3.29
2018-12-10T06:16:34.444Z,3.15
2018-12-10T06:19:03.959Z,3.06
2018-12-10T06:21:33.794Z,3.14
2018-12-10T06:24:03.299Z,3.15
2018-12-10T06:26:33.201Z,3.22
2018-12-10T06:29:03.483Z,3.20
2018-12-10T06:31:32.770Z,3.23
2018-12-10T06:34:02.955Z,3.22
2018-12-10T06:36:33.091Z,3.07
2018-12-10T06:39:02.421Z,3.02
2018-12-10T06:41:33.550Z,2.97
2018-12-10T06:44:03.713Z,2.94
2018-12-10T06:46:33.035Z,2.93
2018-12-10T06:49:03.278Z,2.98
2018-12-10T06:51:32.862Z,2.92
2018-12-10T06:54:02.428Z,2.94
2018-12-10T06:56:31.699Z,3.01
2018-12-10T06:59:01.088Z,3.08
2018-12-10T07:01:31.159Z,3.13
2018-12-10T07:04:01.391Z,3.03
2018-12-10T07:06:31.595Z,3.10
2018-12-10T07:09:00.820Z,2.99
2018-12-10T07:11:31.878Z,3.12
2018-12-10T07:14:01.225Z,3.13
2018-12-10T07:16:30.510Z,3.16
2018-12-10T07:18:59.947Z,3.16
2018-12-10T07:21:29.913Z,3.18
2018-12-10T07:23:59.281Z,2.99
2018-12-10T07:26:29.173Z,2.99
2018-12-10T07:28:58.523Z,3.08
2018-12-10T07:31:27.843Z,2.99
2018-12-10T07:33:57.509Z,3.08
2018-12-10T07:36:27.115Z,3.11
2018-12-10T07:38:57.460Z,3.10
2018-12-10T07:41:27.001Z,3.17
2018-12-10T07:43:56.686Z,3.21
2018-12-10T07:46:26.945Z,3.21
2018-12-10T07:48:57.155Z,3.24
2018-12-10T07:51:26.444Z,3.23
2018-12-10T07:53:56.525Z,3.19
2018-12-10T07:56:29.095Z,3.04
2018-12-10T07:58:58.756Z,3.01
2018-12-10T08:01:28.120Z,2.87
2018-12-10T08:03:57.578Z,2.89
2018-12-10T08:06:27.108Z,2.72
2018-12-10T08:08:56.745Z,2.81
2018-12-10T08:11:26.075Z,2.79
2018-12-10T08:13:55.324Z,2.73
2018-12-10T08:16:25.544Z,2.69
2018-12-10T08:18:55.493Z,2.73
2018-12-10T08:21:25.688Z,2.87
2018-12-10T08:23:55.064Z,2.92
2018-12-10T08:26:25.223Z,2.98
2018-12-10T08:29:03.839Z,3.04
2018-12-10T08:31:27.824Z,3.12
2018-12-10T08:33:57.233Z,3.09
2018-12-10T08:36:26.653Z,3.15
2018-12-10T08:38:56.233Z,3.28
2018-12-10T08:41:26.385Z,3.48
2018-12-10T08:43:56.590Z,3.76
2018-12-10T08:46:25.984Z,4.60
2018-12-10T08:48:55.406Z,5.57
2018-12-10T08:51:25.153Z,6.11
2018-12-10T08:53:54.616Z,6.19
2018-12-10T08:56:24.159Z,5.90
2018-12-10T08:58:53.499Z,5.96
2018-12-10T09:01:23.050Z,6.11
2018-12-10T09:03:52.448Z,6.06
2018-12-10T09:06:22.124Z,6.21
2018-12-10T09:08:51.799Z,6.40
2018-12-10T09:11:21.052Z,6.69
2018-12-10T09:13:50.329Z,6.71
2018-12-10T09:16:19.778Z,6.74
2018-12-10T09:18:49.158Z,7.16
2018-12-10T09:21:18.681Z,8.24
2018-12-10T09:23:48.018Z,9.59
2018-12-10T09:26:18.227Z,9.26
2018-12-10T09:28:48.413Z,8.01
2018-12-10T09:31:17.895Z,7.30
2018-12-10T09:33:47.907Z,6.57
2018-12-10T09:36:17.210Z,6.31
2018-12-10T09:38:46.478Z,6.31
2018-12-10T09:41:16.094Z,6.40
2018-12-10T09:43:46.692Z,6.46
2018-12-10T09:46:16.189Z,6.40
2018-12-10T09:48:45.675Z,6.05
2018-12-10T09:51:15.362Z,6.05
2018-12-10T09:53:45.559Z,6.05
2018-12-10T09:56:14.898Z,6.15
2018-12-10T09:58:44.118Z,6.46
2018-12-10T10:01:14.126Z,6.47
2018-12-10T10:03:43.705Z,6.51
2018-12-10T10:06:13.525Z,6.64
2018-12-10T10:08:42.829Z,6.58
2018-12-10T10:11:12.285Z,6.64
2018-12-10T10:13:41.564Z,6.86
2018-12-10T10:16:11.112Z,7.10
2018-12-10T10:18:40.659Z,7.76
2018-12-10T10:21:11.390Z,8.65
2018-12-10T10:23:40.991Z,9.15
2018-12-10T10:26:10.314Z,9.01
2018-12-10T10:28:39.716Z,8.43
2018-12-10T10:31:09.265Z,8.41
2018-12-10T10:33:39.163Z,8.40
2018-12-10T10:36:09.258Z,7.74
2018-12-10T10:38:38.685Z,7.88
2018-12-10T10:41:08.749Z,7.62
2018-12-10T10:43:39.186Z,7.33
2018-12-10T10:46:08.597Z,7.21
2018-12-10T10:48:38.202Z,7.06
2018-12-10T10:51:07.569Z,6.91
2018-12-10T10:53:36.984Z,6.73
2018-12-10T10:56:06.760Z,6.54
2018-12-10T10:58:36.279Z,6.65
2018-12-10T11:01:11.049Z,6.57
2018-12-10T11:03:41.415Z,6.76
2018-12-10T11:06:11.638Z,6.84
2018-12-10T11:08:41.037Z,6.77
2018-12-10T11:11:10.328Z,6.79
2018-12-10T11:13:40.260Z,6.92
2018-12-10T11:16:10.959Z,6.94
2018-12-10T11:18:40.520Z,6.51
2018-12-10T11:21:10.655Z,6.64
2018-12-10T11:23:40.184Z,6.68
2018-12-10T11:26:09.635Z,6.79
2018-12-10T11:28:38.919Z,6.92
2018-12-10T11:31:09.556Z,6.90
2018-12-10T11:33:38.898Z,7.03
2018-12-10T11:36:08.422Z,7.12
2018-12-10T11:38:37.909Z,6.98
2018-12-10T11:41:08.229Z,6.93
2018-12-10T11:43:37.739Z,6.98
2018-12-10T11:46:07.197Z,6.70
2018-12-10T11:48:36.775Z,6.82
2018-12-10T11:51:07.754Z,6.93
2018-12-10T11:53:37.021Z,7.47
2018-12-10T11:56:06.949Z,7.58
2018-12-10T11:58:36.939Z,7.20
2018-12-10T12:01:06.436Z,6.87
2018-12-10T12:03:36.466Z,6.92
2018-12-10T12:06:08.630Z,6.93
2018-12-10T12:08:38.031Z,7.02
2018-12-10T12:11:07.875Z,6.86
2018-12-10T12:13:37.306Z,7.22
2018-12-10T12:16:08.355Z,7.54
2018-12-10T12:18:38.539Z,7.88
2018-12-10T12:21:08.771Z,8.33
2018-12-10T12:23:38.106Z,8.49
2018-12-10T12:26:07.904Z,8.80
2018-12-10T12:28:37.391Z,8.86
2018-12-10T12:31:07.568Z,8.77
2018-12-10T12:33:36.839Z,9.10
2018-12-10T12:36:06.177Z,9.05
2018-12-10T12:38:35.886Z,9.56
2018-12-10T12:41:05.635Z,9.92
2018-12-10T12:43:35.131Z,9.88
2018-12-10T12:46:04.811Z,9.74
2018-12-10T12:48:34.070Z,9.89
2018-12-10T12:51:04.315Z,10.80
2018-12-10T12:53:34.444Z,11.17
2018-12-10T12:56:04.795Z,11.54
2018-12-10T12:58:34.835Z,11.45
2018-12-10T13:01:04.135Z,10.64
2018-12-10T13:03:33.611Z,9.72
2018-12-10T13:06:06.958Z,9.70
2018-12-10T13:08:35.618Z,9.58
2018-12-10T13:11:05.065Z,9.04
2018-12-10T13:13:34.558Z,9.30
2018-12-10T13:16:04.076Z,9.39
2018-12-10T13:18:33.484Z,9.60
2018-12-10T13:21:03.041Z,9.97
2018-12-10T13:23:32.539Z,10.57
2018-12-10T13:26:02.183Z,10.43
2018-12-10T13:28:32.293Z,10.07
2018-12-10T13:31:01.751Z,10.07
2018-12-10T13:33:31.650Z,10.11
2018-12-10T13:36:01.137Z,9.62
2018-12-10T13:38:30.715Z,8.86
2018-12-10T13:41:01.276Z,8.88
2018-12-10T13:43:31.532Z,8.80
2018-12-10T13:46:01.798Z,8.46
2018-12-10T13:48:31.307Z,8.05
2018-12-10T13:55:50.422Z,7.95
2018-12-10T13:58:20.076Z,7.73
2018-12-10T14:00:51.029Z,7.93
2018-12-10T14:03:22.052Z,7.68
2018-12-10T14:05:51.591Z,7.61
2018-12-10T14:08:20.949Z,7.74
2018-12-10T14:10:50.511Z,7.04
2018-12-10T14:13:20.239Z,7.09
2018-12-10T14:15:50.550Z,6.72
2018-12-10T14:18:19.832Z,6.48
2018-12-10T14:20:49.470Z,6.27
2018-12-10T14:23:19.059Z,6.31
2018-12-10T14:25:48.389Z,6.24
2018-12-10T14:28:17.826Z,5.95
2018-12-10T14:30:47.929Z,5.70
2018-12-10T14:33:17.545Z,5.83
2018-12-10T14:35:47.204Z,5.81
2018-12-10T14:38:16.636Z,5.69
2018-12-10T14:40:46.555Z,5.63
2018-12-10T14:43:16.735Z,5.49
2018-12-10T14:45:46.095Z,5.30
2018-12-10T14:48:15.338Z,5.28
2018-12-10T14:50:45.067Z,5.23
2018-12-10T14:53:14.796Z,5.12
2018-12-10T14:55:44.913Z,4.99
2018-12-10T14:58:14.182Z,4.95
2018-12-10T15:00:43.793Z,4.87
2018-12-10T15:03:13.476Z,4.81
2018-12-10T15:05:43.746Z,4.73
2018-12-10T15:08:13.862Z,4.63
2018-12-10T15:10:43.967Z,4.50
2018-12-10T15:13:14.230Z,4.36
2018-12-10T15:15:43.622Z,4.27
2018-12-10T15:18:13.291Z,4.19
2018-12-10T15:20:42.821Z,4.09
2018-12-10T15:23:13.156Z,4.04
2018-12-10T15:25:42.675Z,4.05
2018-12-10T15:28:12.435Z,3.98
2018-12-10T15:30:42.806Z,3.97
2018-12-10T15:33:12.927Z,3.98
2018-12-10T15:35:42.363Z,4.00
2018-12-10T15:38:12.294Z,4.15
2018-12-10T15:40:41.668Z,3.89
2018-12-10T15:43:11.202Z,3.71
2018-12-10T15:45:40.577Z,3.82
2018-12-10T15:48:10.172Z,3.83
2018-12-10T15:50:39.708Z,3.70
2018-12-10T15:53:09.182Z,3.58
2018-12-10T15:55:38.848Z,3.51
2018-12-10T15:58:08.322Z,3.51
2018-12-10T16:00:38.436Z,3.54
2018-12-10T16:03:08.431Z,3.62
2018-12-10T16:05:38.727Z,3.61
2018-12-10T16:08:08.147Z,3.66
2018-12-10T16:10:37.926Z,3.67
2018-12-10T16:13:07.278Z,3.77
2018-12-10T16:15:37.237Z,3.85
2018-12-10T16:18:06.802Z,3.77
2018-12-10T16:20:36.321Z,3.67
2018-12-10T16:23:05.741Z,3.58
2018-12-10T16:25:35.355Z,3.55
2018-12-10T16:28:05.418Z,3.70
2018-12-10T16:30:35.145Z,3.75
2018-12-10T16:33:04.625Z,3.83
2018-12-10T16:35:34.416Z,3.69
2018-12-10T16:38:04.341Z,3.70
2018-12-10T16:40:34.929Z,3.69
2018-12-10T16:43:04.363Z,3.61
2018-12-10T16:45:33.844Z,3.70
2018-12-10T16:48:03.363Z,3.78
2018-12-10T16:50:32.807Z,3.78
2018-12-10T16:53:02.703Z,3.71
2018-12-10T16:55:32.824Z,3.75
2018-12-10T16:58:02.257Z,3.80
2018-12-10T17:00:33.249Z,3.81
2018-12-10T17:03:04.035Z,3.79
2018-12-10T17:05:33.664Z,3.75
2018-12-10T17:08:03.085Z,3.76
2018-12-10T17:10:33.007Z,3.73
2018-12-10T17:13:02.498Z,3.62
2018-12-10T17:15:33.509Z,3.55
2018-12-10T17:18:03.647Z,3.46
2018-12-10T17:20:33.004Z,3.51
2018-12-10T17:23:02.665Z,3.47
2018-12-10T17:25:33.162Z,3.34
2018-12-10T17:28:02.793Z,3.35
2018-12-10T17:30:32.455Z,3.44
2018-12-10T17:33:02.133Z,3.43
2018-12-10T17:35:32.240Z,3.41
2018-12-10T17:38:02.394Z,3.43
2018-12-10T17:40:33.009Z,3.48
2018-12-10T17:43:02.754Z,3.54
2018-12-10T17:45:32.143Z,3.57
2018-12-10T17:48:02.202Z,3.63
2018-12-10T17:50:32.435Z,3.70
2018-12-10T17:53:02.800Z,3.70
2018-12-10T17:55:32.585Z,3.69
2018-12-10T17:58:02.173Z,3.70
2018-12-10T18:00:32.233Z,3.69
2018-12-10T18:03:01.747Z,3.69
2018-12-10T18:05:31.548Z,3.70
2018-12-10T18:08:01.043Z,3.68
2018-12-10T18:10:30.514Z,3.66
2018-12-10T18:13:01.233Z,3.65
2018-12-10T18:15:31.019Z,3.66
2018-12-10T18:18:00.613Z,3.67
2018-12-10T18:20:30.830Z,3.64
2018-12-10T18:23:01.108Z,3.65
2018-12-10T18:25:30.729Z,3.68
2018-12-10T18:28:01.619Z,3.67
2018-12-10T18:30:31.920Z,3.67
2018-12-10T18:33:02.923Z,3.64
2018-12-10T18:35:32.363Z,3.69
2018-12-10T18:38:02.454Z,3.67
2018-12-10T18:40:32.290Z,3.58
2018-12-10T18:43:01.943Z,3.56
2018-12-10T18:45:31.806Z,3.57
2018-12-10T18:48:01.531Z,3.60
2018-12-10T18:50:31.371Z,3.62
2018-12-10T18:53:01.568Z,3.60
2018-12-10T18:55:31.154Z,3.66
2018-12-10T18:58:00.865Z,3.69
2018-12-10T19:00:31.193Z,3.72
2018-12-10T19:03:01.329Z,3.77
2018-12-10T19:05:30.759Z,3.79
2018-12-10T19:08:00.563Z,3.90
2018-12-10T19:10:30.081Z,3.85
2018-12-10T19:13:00.829Z,3.86
2018-12-10T19:15:31.413Z,3.85
2018-12-10T19:18:01.387Z,3.85
2018-12-10T19:20:31.800Z,3.88
2018-12-10T19:23:01.894Z,3.92
2018-12-10T19:25:31.233Z,3.96
2018-12-10T19:28:02.258Z,3.97
2018-12-10T19:30:31.821Z,4.03
2018-12-10T19:33:02.870Z,3.90
2018-12-10T19:35:32.484Z,3.32
2018-12-10T19:38:02.109Z,2.95
2018-12-10T19:40:32.209Z,2.62
2018-12-10T19:43:02.448Z,2.40
2018-12-10T19:45:31.986Z,2.39
2018-12-10T19:48:01.873Z,2.34
2018-12-10T19:50:31.364Z,2.38
2018-12-10T19:53:02.450Z,2.34
2018-12-10T19:55:32.414Z,2.38
2018-12-10T19:58:02.875Z,2.45
2018-12-10T20:00:33.090Z,2.44
2018-12-10T20:03:05.172Z,2.38
2018-12-10T20:05:51.796Z,2.51
2018-12-10T20:08:22.030Z,2.50
2018-12-10T20:10:51.779Z,2.56
2018-12-10T20:13:21.338Z,2.51
2018-12-10T20:15:51.658Z,2.47
2018-12-10T20:18:21.184Z,2.50
2018-12-10T20:20:50.999Z,2.47
2018-12-10T20:23:20.339Z,2.38
2018-12-10T20:25:51.306Z,2.38
2018-12-10T20:28:21.834Z,2.24
2018-12-10T20:30:52.028Z,2.34
2018-12-10T20:33:21.955Z,2.34
2018-12-10T20:35:52.213Z,2.30
2018-12-10T20:38:23.046Z,2.29
2018-12-10T20:40:54.143Z,2.22
2018-12-10T20:43:23.823Z,2.15
2018-12-10T20:45:54.223Z,2.08
2018-12-10T20:48:26.183Z,2.03
2018-12-10T20:50:56.701Z,1.97
2018-12-10T20:53:26.647Z,1.93
2018-12-10T20:55:56.663Z,1.78
2018-12-10T20:58:26.929Z,1.77
2018-12-10T21:00:57.073Z,1.67
2018-12-10T21:03:26.843Z,1.60
2018-12-10T21:06:01.701Z,1.65
2018-12-10T21:08:31.675Z,1.64
2018-12-10T21:11:02.026Z,1.65
2018-12-10T21:13:31.655Z,1.59
2018-12-10T21:16:01.288Z,1.60
2018-12-10T21:18:31.946Z,1.68
2018-12-10T21:21:01.537Z,1.69
2018-12-10T21:23:31.815Z,1.74
2018-12-10T21:26:02.011Z,1.79
2018-12-10T21:28:32.588Z,1.80
2018-12-10T21:31:02.212Z,1.80
2018-12-10T21:33:32.290Z,1.78
2018-12-10T21:36:01.800Z,1.75
2018-12-10T21:38:31.378Z,1.77
2018-12-10T21:41:01.373Z,1.80
2018-12-10T21:43:31.062Z,1.80
2018-12-10T21:46:00.753Z,1.62
2018-12-10T21:48:30.945Z,1.52
2018-12-10T21:51:00.456Z,1.27
2018-12-10T21:53:29.923Z,1.25
2018-12-10T21:55:59.520Z,1.29
2018-12-10T21:58:29.853Z,1.24
2018-12-10T22:00:59.865Z,1.22
2018-12-10T22:03:30.065Z,1.19
2018-12-10T22:05:59.616Z,1.25
2018-12-10T22:08:30.466Z,1.35
2018-12-10T22:10:59.820Z,1.38
2018-12-10T22:13:29.623Z,1.48
2018-12-10T22:15:59.110Z,1.53
2018-12-10T22:18:29.454Z,1.31
2018-12-10T22:20:58.894Z,1.24
2018-12-10T22:23:28.855Z,1.13
2018-12-10T22:25:58.123Z,1.16
2018-12-10T22:28:28.780Z,1.08
2018-12-10T22:30:58.414Z,1.03
2018-12-10T22:33:27.750Z,0.95
2018-12-10T22:35:57.436Z,0.88
2018-12-10T22:38:27.033Z,0.82
2018-12-10T22:40:56.560Z,0.85
2018-12-10T22:43:26.018Z,0.91
2018-12-10T22:45:55.638Z,0.93
2018-12-10T22:48:25.051Z,0.88
2018-12-10T22:50:55.075Z,0.81
2018-12-10T22:53:24.499Z,0.81
2018-12-10T22:55:54.099Z,0.71
2018-12-10T22:58:23.711Z,0.66
2018-12-10T23:00:53.104Z,0.61
2018-12-10T23:03:24.080Z,0.58
2018-12-10T23:05:53.477Z,0.55
2018-12-10T23:08:23.695Z,0.60
2018-12-10T23:10:53.364Z,0.56
2018-12-10T23:13:22.864Z,0.52
2018-12-10T23:15:52.114Z,0.45
2018-12-10T23:18:23.393Z,0.39
2018-12-10T23:20:52.746Z,0.30
2018-12-10T23:23:22.709Z,0.37
2018-12-10T23:25:52.851Z,0.35
2018-12-10T23:28:22.220Z,0.31
2018-12-10T23:30:51.569Z,0.36
2018-12-10T23:33:20.988Z,0.38
2018-12-10T23:35:50.483Z,0.34
2018-12-10T23:38:19.995Z,0.34
2018-12-10T23:40:50.176Z,0.26
2018-12-10T23:43:24.608Z,0.17
2018-12-10T23:45:55.516Z,0.12
2018-12-10T23:48:24.894Z,0.15
2018-12-10T23:50:54.819Z,0.06
2018-12-10T23:53:24.219Z,0.05
2018-12-10T23:55:53.580Z,0.13
2018-12-10T23:58:23.511Z,0.18
